sensor_id;sensor_type;location;lat;lon;timestamp;P1;durP1;ratioP1;P2;durP2;ratioP2
12141;SDS011;6134;59.284;18.022;2022-12-07T00:01:26;5.65;;;2.03;;
12141;SDS011;6134;59.284;18.022;2022-12-07T00:03:59;5.45;;;1.90;;
12141;SDS011;6134;59.284;18.022;2022-12-07T00:06:31;5.80;;;2.50;;
12141;SDS011;6134;59.284;18.022;2022-12-07T00:09:02;4.28;;;2.15;;
12141;SDS011;6134;59.284;18.022;2022-12-07T00:11:31;3.25;;;2.42;;
12141;SDS011;6134;59.284;18.022;2022-12-07T00:14:01;4.80;;;2.38;;
12141;SDS011;6134;59.284;18.022;2022-12-07T00:16:31;4.40;;;2.28;;
12141;SDS011;6134;59.284;18.022;2022-12-07T00:19:00;5.10;;;2.45;;
12141;SDS011;6134;59.284;18.022;2022-12-07T00:21:29;3.83;;;2.55;;
12141;SDS011;6134;59.284;18.022;2022-12-07T00:23:59;4.68;;;2.55;;
12141;SDS011;6134;59.284;18.022;2022-12-07T00:26:30;5.18;;;2.80;;
12141;SDS011;6134;59.284;18.022;2022-12-07T00:29:01;4.63;;;2.22;;
12141;SDS011;6134;59.284;18.022;2022-12-07T00:31:32;7.40;;;2.60;;
12141;SDS011;6134;59.284;18.022;2022-12-07T00:34:01;4.22;;;2.50;;
12141;SDS011;6134;59.284;18.022;2022-12-07T00:36:30;4.30;;;2.20;;
12141;SDS011;6134;59.284;18.022;2022-12-07T00:39:00;4.13;;;2.55;;
12141;SDS011;6134;59.284;18.022;2022-12-07T00:41:30;3.65;;;2.58;;
12141;SDS011;6134;59.284;18.022;2022-12-07T00:43:59;6.43;;;2.63;;
12141;SDS011;6134;59.284;18.022;2022-12-07T00:46:27;3.83;;;2.50;;
12141;SDS011;6134;59.284;18.022;2022-12-07T00:48:56;5.00;;;2.20;;
12141;SDS011;6134;59.284;18.022;2022-12-07T00:51:25;3.47;;;2.40;;
12141;SDS011;6134;59.284;18.022;2022-12-07T00:53:54;6.65;;;2.78;;
12141;SDS011;6134;59.284;18.022;2022-12-07T00:56:24;5.78;;;2.72;;
12141;SDS011;6134;59.284;18.022;2022-12-07T00:58:55;3.72;;;2.25;;
12141;SDS011;6134;59.284;18.022;2022-12-07T01:01:24;5.38;;;2.63;;
12141;SDS011;6134;59.284;18.022;2022-12-07T01:03:53;6.38;;;2.95;;
12141;SDS011;6134;59.284;18.022;2022-12-07T01:06:22;7.05;;;2.83;;
12141;SDS011;6134;59.284;18.022;2022-12-07T01:08:51;9.45;;;2.28;;
12141;SDS011;6134;59.284;18.022;2022-12-07T01:11:21;4.25;;;2.75;;
12141;SDS011;6134;59.284;18.022;2022-12-07T01:13:50;4.70;;;2.65;;
12141;SDS011;6134;59.284;18.022;2022-12-07T01:16:20;6.13;;;2.45;;
12141;SDS011;6134;59.284;18.022;2022-12-07T01:18:50;3.10;;;2.42;;
12141;SDS011;6134;59.284;18.022;2022-12-07T01:21:19;4.50;;;2.10;;
12141;SDS011;6134;59.284;18.022;2022-12-07T01:23:48;4.68;;;2.47;;
12141;SDS011;6134;59.284;18.022;2022-12-07T01:26:18;3.78;;;2.60;;
12141;SDS011;6134;59.284;18.022;2022-12-07T01:28:47;5.75;;;2.38;;
12141;SDS011;6134;59.284;18.022;2022-12-07T01:31:16;3.10;;;2.25;;
12141;SDS011;6134;59.284;18.022;2022-12-07T01:33:47;7.03;;;2.78;;
12141;SDS011;6134;59.284;18.022;2022-12-07T01:36:17;4.47;;;2.25;;
12141;SDS011;6134;59.284;18.022;2022-12-07T01:38:47;3.95;;;2.10;;
12141;SDS011;6134;59.284;18.022;2022-12-07T01:41:17;2.72;;;2.17;;
12141;SDS011;6134;59.284;18.022;2022-12-07T01:44:09;4.18;;;2.40;;
12141;SDS011;6134;59.284;18.022;2022-12-07T01:46:39;4.97;;;2.97;;
12141;SDS011;6134;59.284;18.022;2022-12-07T01:49:10;4.80;;;2.20;;
12141;SDS011;6134;59.284;18.022;2022-12-07T01:51:40;2.58;;;1.80;;
12141;SDS011;6134;59.284;18.022;2022-12-07T01:54:09;4.43;;;2.85;;
12141;SDS011;6134;59.284;18.022;2022-12-07T01:56:40;6.57;;;2.25;;
12141;SDS011;6134;59.284;18.022;2022-12-07T01:59:09;5.88;;;2.65;;
12141;SDS011;6134;59.284;18.022;2022-12-07T02:01:38;4.13;;;2.22;;
12141;SDS011;6134;59.284;18.022;2022-12-07T02:04:08;3.00;;;2.13;;
12141;SDS011;6134;59.284;18.022;2022-12-07T02:06:37;6.65;;;2.50;;
12141;SDS011;6134;59.284;18.022;2022-12-07T02:09:05;4.45;;;2.45;;
12141;SDS011;6134;59.284;18.022;2022-12-07T02:11:34;3.88;;;2.30;;
12141;SDS011;6134;59.284;18.022;2022-12-07T02:14:03;3.03;;;2.03;;
12141;SDS011;6134;59.284;18.022;2022-12-07T02:16:33;4.25;;;2.10;;
12141;SDS011;6134;59.284;18.022;2022-12-07T02:19:12;4.05;;;2.38;;
12141;SDS011;6134;59.284;18.022;2022-12-07T02:21:46;4.93;;;2.08;;
12141;SDS011;6134;59.284;18.022;2022-12-07T02:24:24;3.22;;;2.20;;
12141;SDS011;6134;59.284;18.022;2022-12-07T02:27:09;3.17;;;2.20;;
12141;SDS011;6134;59.284;18.022;2022-12-07T02:29:41;4.78;;;2.50;;
12141;SDS011;6134;59.284;18.022;2022-12-07T02:32:15;4.60;;;2.30;;
12141;SDS011;6134;59.284;18.022;2022-12-07T02:34:47;3.90;;;2.10;;
12141;SDS011;6134;59.284;18.022;2022-12-07T02:37:19;6.10;;;2.15;;
12141;SDS011;6134;59.284;18.022;2022-12-07T02:39:51;2.17;;;1.75;;
12141;SDS011;6134;59.284;18.022;2022-12-07T02:42:23;2.63;;;2.13;;
12141;SDS011;6134;59.284;18.022;2022-12-07T02:44:53;3.03;;;1.90;;
12141;SDS011;6134;59.284;18.022;2022-12-07T02:47:22;4.05;;;1.90;;
12141;SDS011;6134;59.284;18.022;2022-12-07T02:49:53;3.42;;;1.83;;
12141;SDS011;6134;59.284;18.022;2022-12-07T02:52:21;2.35;;;1.70;;
12141;SDS011;6134;59.284;18.022;2022-12-07T02:54:50;5.45;;;2.10;;
12141;SDS011;6134;59.284;18.022;2022-12-07T02:57:23;5.13;;;1.90;;
12141;SDS011;6134;59.284;18.022;2022-12-07T02:59:59;5.20;;;1.85;;
12141;SDS011;6134;59.284;18.022;2022-12-07T03:02:31;4.47;;;2.13;;
12141;SDS011;6134;59.284;18.022;2022-12-07T03:05:04;4.00;;;1.85;;
12141;SDS011;6134;59.284;18.022;2022-12-07T03:07:37;6.20;;;2.15;;
12141;SDS011;6134;59.284;18.022;2022-12-07T03:10:08;3.50;;;1.52;;
12141;SDS011;6134;59.284;18.022;2022-12-07T03:12:42;3.08;;;1.80;;
12141;SDS011;6134;59.284;18.022;2022-12-07T03:15:14;3.47;;;2.00;;
12141;SDS011;6134;59.284;18.022;2022-12-07T03:17:44;4.60;;;1.88;;
12141;SDS011;6134;59.284;18.022;2022-12-07T03:20:15;3.42;;;1.65;;
12141;SDS011;6134;59.284;18.022;2022-12-07T03:22:45;2.60;;;1.90;;
12141;SDS011;6134;59.284;18.022;2022-12-07T03:25:15;2.85;;;1.73;;
12141;SDS011;6134;59.284;18.022;2022-12-07T03:27:45;4.03;;;3.13;;
12141;SDS011;6134;59.284;18.022;2022-12-07T03:30:17;3.17;;;2.00;;
12141;SDS011;6134;59.284;18.022;2022-12-07T03:32:48;4.65;;;1.85;;
12141;SDS011;6134;59.284;18.022;2022-12-07T03:35:19;4.90;;;1.95;;
12141;SDS011;6134;59.284;18.022;2022-12-07T03:37:50;3.97;;;1.77;;
12141;SDS011;6134;59.284;18.022;2022-12-07T03:40:22;6.53;;;2.10;;
12141;SDS011;6134;59.284;18.022;2022-12-07T03:42:52;3.33;;;1.75;;
12141;SDS011;6134;59.284;18.022;2022-12-07T03:45:25;3.65;;;1.80;;
12141;SDS011;6134;59.284;18.022;2022-12-07T03:47:57;3.85;;;1.67;;
12141;SDS011;6134;59.284;18.022;2022-12-07T03:50:31;5.15;;;2.08;;
12141;SDS011;6134;59.284;18.022;2022-12-07T03:53:04;4.13;;;2.10;;
12141;SDS011;6134;59.284;18.022;2022-12-07T03:55:34;5.20;;;2.22;;
12141;SDS011;6134;59.284;18.022;2022-12-07T03:58:05;2.72;;;1.80;;
12141;SDS011;6134;59.284;18.022;2022-12-07T04:00:36;3.30;;;1.90;;
12141;SDS011;6134;59.284;18.022;2022-12-07T04:03:05;2.45;;;1.70;;
12141;SDS011;6134;59.284;18.022;2022-12-07T04:05:33;6.43;;;2.10;;
12141;SDS011;6134;59.284;18.022;2022-12-07T04:08:02;5.25;;;2.05;;
12141;SDS011;6134;59.284;18.022;2022-12-07T04:10:31;2.60;;;1.70;;
12141;SDS011;6134;59.284;18.022;2022-12-07T04:13:00;6.28;;;2.40;;
12141;SDS011;6134;59.284;18.022;2022-12-07T04:15:29;2.80;;;1.55;;
12141;SDS011;6134;59.284;18.022;2022-12-07T04:17:59;3.53;;;1.88;;
12141;SDS011;6134;59.284;18.022;2022-12-07T04:20:27;4.10;;;2.05;;
12141;SDS011;6134;59.284;18.022;2022-12-07T04:22:56;3.97;;;2.10;;
12141;SDS011;6134;59.284;18.022;2022-12-07T04:25:25;11.05;;;2.70;;
12141;SDS011;6134;59.284;18.022;2022-12-07T04:27:53;4.78;;;2.40;;
12141;SDS011;6134;59.284;18.022;2022-12-07T04:30:22;4.45;;;2.33;;
12141;SDS011;6134;59.284;18.022;2022-12-07T04:32:51;3.97;;;1.67;;
12141;SDS011;6134;59.284;18.022;2022-12-07T04:35:21;4.03;;;1.95;;
12141;SDS011;6134;59.284;18.022;2022-12-07T04:37:49;4.90;;;1.98;;
12141;SDS011;6134;59.284;18.022;2022-12-07T04:40:18;5.53;;;2.08;;
12141;SDS011;6134;59.284;18.022;2022-12-07T04:42:46;3.95;;;2.10;;
12141;SDS011;6134;59.284;18.022;2022-12-07T04:45:15;5.00;;;2.20;;
12141;SDS011;6134;59.284;18.022;2022-12-07T04:47:43;3.42;;;1.98;;
12141;SDS011;6134;59.284;18.022;2022-12-07T04:50:12;4.43;;;1.90;;
12141;SDS011;6134;59.284;18.022;2022-12-07T04:52:42;3.03;;;2.00;;
12141;SDS011;6134;59.284;18.022;2022-12-07T04:55:11;2.80;;;1.63;;
12141;SDS011;6134;59.284;18.022;2022-12-07T04:57:39;2.80;;;1.77;;
12141;SDS011;6134;59.284;18.022;2022-12-07T05:00:08;5.57;;;1.80;;
12141;SDS011;6134;59.284;18.022;2022-12-07T05:02:37;2.90;;;1.80;;
12141;SDS011;6134;59.284;18.022;2022-12-07T05:05:06;5.82;;;1.70;;
12141;SDS011;6134;59.284;18.022;2022-12-07T05:07:35;4.93;;;1.77;;
12141;SDS011;6134;59.284;18.022;2022-12-07T05:10:05;1.83;;;1.33;;
12141;SDS011;6134;59.284;18.022;2022-12-07T05:12:34;5.07;;;1.67;;
12141;SDS011;6134;59.284;18.022;2022-12-07T05:15:03;2.65;;;1.30;;
12141;SDS011;6134;59.284;18.022;2022-12-07T05:17:32;3.35;;;1.95;;
12141;SDS011;6134;59.284;18.022;2022-12-07T05:20:00;2.65;;;1.40;;
12141;SDS011;6134;59.284;18.022;2022-12-07T05:22:29;2.58;;;1.80;;
12141;SDS011;6134;59.284;18.022;2022-12-07T05:24:58;2.28;;;1.45;;
12141;SDS011;6134;59.284;18.022;2022-12-07T05:27:28;3.70;;;1.60;;
12141;SDS011;6134;59.284;18.022;2022-12-07T05:29:57;2.45;;;1.60;;
12141;SDS011;6134;59.284;18.022;2022-12-07T05:32:26;3.05;;;1.60;;
12141;SDS011;6134;59.284;18.022;2022-12-07T05:34:55;3.00;;;1.70;;
12141;SDS011;6134;59.284;18.022;2022-12-07T05:37:23;2.88;;;1.83;;
12141;SDS011;6134;59.284;18.022;2022-12-07T05:39:52;5.30;;;1.70;;
12141;SDS011;6134;59.284;18.022;2022-12-07T05:42:21;4.95;;;2.28;;
12141;SDS011;6134;59.284;18.022;2022-12-07T05:44:51;5.18;;;1.83;;
12141;SDS011;6134;59.284;18.022;2022-12-07T05:47:19;3.47;;;2.03;;
12141;SDS011;6134;59.284;18.022;2022-12-07T05:49:48;3.05;;;1.85;;
12141;SDS011;6134;59.284;18.022;2022-12-07T05:52:17;3.28;;;1.55;;
12141;SDS011;6134;59.284;18.022;2022-12-07T05:54:45;4.72;;;1.90;;
12141;SDS011;6134;59.284;18.022;2022-12-07T05:57:14;4.03;;;1.83;;
12141;SDS011;6134;59.284;18.022;2022-12-07T05:59:43;2.95;;;1.60;;
12141;SDS011;6134;59.284;18.022;2022-12-07T06:02:12;3.17;;;1.40;;
12141;SDS011;6134;59.284;18.022;2022-12-07T06:04:42;2.75;;;1.40;;
12141;SDS011;6134;59.284;18.022;2022-12-07T06:07:12;4.38;;;1.65;;
12141;SDS011;6134;59.284;18.022;2022-12-07T06:09:41;2.15;;;1.73;;
12141;SDS011;6134;59.284;18.022;2022-12-07T06:12:10;4.35;;;1.98;;
12141;SDS011;6134;59.284;18.022;2022-12-07T06:14:56;9.27;;;4.85;;
12141;SDS011;6134;59.284;18.022;2022-12-07T06:17:26;8.15;;;4.80;;
12141;SDS011;6134;59.284;18.022;2022-12-07T06:19:55;6.35;;;3.55;;
12141;SDS011;6134;59.284;18.022;2022-12-07T06:22:24;6.30;;;3.78;;
12141;SDS011;6134;59.284;18.022;2022-12-07T06:24:52;6.60;;;3.88;;
12141;SDS011;6134;59.284;18.022;2022-12-07T06:27:21;5.88;;;3.70;;
12141;SDS011;6134;59.284;18.022;2022-12-07T06:29:49;13.40;;;6.72;;
12141;SDS011;6134;59.284;18.022;2022-12-07T06:32:18;7.72;;;4.30;;
12141;SDS011;6134;59.284;18.022;2022-12-07T06:34:48;10.15;;;4.00;;
12141;SDS011;6134;59.284;18.022;2022-12-07T06:37:17;7.05;;;3.33;;
12141;SDS011;6134;59.284;18.022;2022-12-07T06:39:45;6.85;;;4.00;;
12141;SDS011;6134;59.284;18.022;2022-12-07T06:42:14;8.52;;;3.70;;
12141;SDS011;6134;59.284;18.022;2022-12-07T06:44:43;4.05;;;2.50;;
12141;SDS011;6134;59.284;18.022;2022-12-07T06:47:11;3.83;;;2.25;;
12141;SDS011;6134;59.284;18.022;2022-12-07T06:50:02;9.38;;;2.55;;
12141;SDS011;6134;59.284;18.022;2022-12-07T06:52:33;4.50;;;2.35;;
12141;SDS011;6134;59.284;18.022;2022-12-07T06:55:01;5.20;;;2.53;;
12141;SDS011;6134;59.284;18.022;2022-12-07T06:57:30;7.45;;;2.35;;
12141;SDS011;6134;59.284;18.022;2022-12-07T06:59:59;5.20;;;2.53;;
12141;SDS011;6134;59.284;18.022;2022-12-07T07:02:29;5.10;;;2.40;;
12141;SDS011;6134;59.284;18.022;2022-12-07T07:04:58;3.75;;;2.50;;
12141;SDS011;6134;59.284;18.022;2022-12-07T07:07:28;3.90;;;1.70;;
12141;SDS011;6134;59.284;18.022;2022-12-07T07:10:07;4.75;;;1.92;;
12141;SDS011;6134;59.284;18.022;2022-12-07T07:12:36;3.63;;;2.00;;
12141;SDS011;6134;59.284;18.022;2022-12-07T07:15:05;5.10;;;1.73;;
12141;SDS011;6134;59.284;18.022;2022-12-07T07:17:33;4.07;;;1.75;;
12141;SDS011;6134;59.284;18.022;2022-12-07T07:20:02;4.20;;;1.98;;
12141;SDS011;6134;59.284;18.022;2022-12-07T07:22:32;4.00;;;1.88;;
12141;SDS011;6134;59.284;18.022;2022-12-07T07:25:01;4.35;;;1.90;;
12141;SDS011;6134;59.284;18.022;2022-12-07T07:27:29;8.05;;;2.17;;
12141;SDS011;6134;59.284;18.022;2022-12-07T07:29:58;5.55;;;2.67;;
12141;SDS011;6134;59.284;18.022;2022-12-07T07:32:27;8.80;;;2.58;;
12141;SDS011;6134;59.284;18.022;2022-12-07T07:34:56;6.35;;;2.80;;
12141;SDS011;6134;59.284;18.022;2022-12-07T07:37:24;10.15;;;2.95;;
12141;SDS011;6134;59.284;18.022;2022-12-07T07:39:55;11.65;;;3.17;;
12141;SDS011;6134;59.284;18.022;2022-12-07T07:42:23;12.45;;;3.22;;
12141;SDS011;6134;59.284;18.022;2022-12-07T07:44:52;7.50;;;3.13;;
12141;SDS011;6134;59.284;18.022;2022-12-07T07:47:21;8.75;;;3.10;;
12141;SDS011;6134;59.284;18.022;2022-12-07T07:49:50;10.10;;;2.80;;
12141;SDS011;6134;59.284;18.022;2022-12-07T07:52:18;5.55;;;2.65;;
12141;SDS011;6134;59.284;18.022;2022-12-07T07:54:47;3.90;;;1.80;;
12141;SDS011;6134;59.284;18.022;2022-12-07T07:57:17;3.30;;;1.50;;
12141;SDS011;6134;59.284;18.022;2022-12-07T07:59:46;6.57;;;1.60;;
12141;SDS011;6134;59.284;18.022;2022-12-07T08:02:16;3.50;;;1.95;;
12141;SDS011;6134;59.284;18.022;2022-12-07T08:04:44;2.72;;;1.73;;
12141;SDS011;6134;59.284;18.022;2022-12-07T08:07:13;3.75;;;1.42;;
12141;SDS011;6134;59.284;18.022;2022-12-07T08:09:42;3.58;;;1.63;;
12141;SDS011;6134;59.284;18.022;2022-12-07T08:12:11;4.00;;;1.40;;
12141;SDS011;6134;59.284;18.022;2022-12-07T08:14:41;2.60;;;1.50;;
12141;SDS011;6134;59.284;18.022;2022-12-07T08:17:10;5.13;;;1.60;;
12141;SDS011;6134;59.284;18.022;2022-12-07T08:19:38;3.42;;;1.65;;
12141;SDS011;6134;59.284;18.022;2022-12-07T08:22:07;7.90;;;2.10;;
12141;SDS011;6134;59.284;18.022;2022-12-07T08:24:36;6.35;;;1.75;;
12141;SDS011;6134;59.284;18.022;2022-12-07T08:27:04;3.90;;;1.45;;
12141;SDS011;6134;59.284;18.022;2022-12-07T08:29:34;3.78;;;2.00;;
12141;SDS011;6134;59.284;18.022;2022-12-07T08:32:04;4.20;;;1.75;;
12141;SDS011;6134;59.284;18.022;2022-12-07T08:34:35;5.47;;;2.20;;
12141;SDS011;6134;59.284;18.022;2022-12-07T08:37:05;4.20;;;1.92;;
12141;SDS011;6134;59.284;18.022;2022-12-07T08:39:34;2.85;;;1.63;;
12141;SDS011;6134;59.284;18.022;2022-12-07T08:42:03;5.65;;;1.80;;
12141;SDS011;6134;59.284;18.022;2022-12-07T08:44:31;4.38;;;1.70;;
12141;SDS011;6134;59.284;18.022;2022-12-07T08:47:00;7.68;;;1.90;;
12141;SDS011;6134;59.284;18.022;2022-12-07T08:49:32;2.85;;;1.50;;
12141;SDS011;6134;59.284;18.022;2022-12-07T08:52:01;3.65;;;2.20;;
12141;SDS011;6134;59.284;18.022;2022-12-07T08:54:32;4.00;;;1.55;;
12141;SDS011;6134;59.284;18.022;2022-12-07T08:57:02;3.78;;;1.60;;
12141;SDS011;6134;59.284;18.022;2022-12-07T08:59:30;5.18;;;2.10;;
12141;SDS011;6134;59.284;18.022;2022-12-07T09:02:00;2.58;;;2.00;;
12141;SDS011;6134;59.284;18.022;2022-12-07T09:04:29;2.97;;;1.40;;
12141;SDS011;6134;59.284;18.022;2022-12-07T09:06:59;3.40;;;1.65;;
12141;SDS011;6134;59.284;18.022;2022-12-07T09:09:28;7.97;;;1.83;;
12141;SDS011;6134;59.284;18.022;2022-12-07T09:11:57;4.18;;;1.65;;
12141;SDS011;6134;59.284;18.022;2022-12-07T09:14:25;6.82;;;1.92;;
12141;SDS011;6134;59.284;18.022;2022-12-07T09:16:54;6.30;;;1.70;;
12141;SDS011;6134;59.284;18.022;2022-12-07T09:19:23;3.60;;;1.63;;
12141;SDS011;6134;59.284;18.022;2022-12-07T09:21:51;2.15;;;1.27;;
12141;SDS011;6134;59.284;18.022;2022-12-07T09:24:21;3.22;;;1.35;;
12141;SDS011;6134;59.284;18.022;2022-12-07T09:26:50;5.10;;;2.17;;
12141;SDS011;6134;59.284;18.022;2022-12-07T09:29:19;4.40;;;2.05;;
12141;SDS011;6134;59.284;18.022;2022-12-07T09:31:47;9.20;;;2.65;;
12141;SDS011;6134;59.284;18.022;2022-12-07T09:34:16;9.05;;;3.20;;
12141;SDS011;6134;59.284;18.022;2022-12-07T09:36:45;8.65;;;3.10;;
12141;SDS011;6134;59.284;18.022;2022-12-07T09:39:14;12.88;;;3.70;;
12141;SDS011;6134;59.284;18.022;2022-12-07T09:41:44;7.50;;;3.10;;
12141;SDS011;6134;59.284;18.022;2022-12-07T09:44:14;6.55;;;2.30;;
12141;SDS011;6134;59.284;18.022;2022-12-07T09:46:43;9.82;;;2.53;;
12141;SDS011;6134;59.284;18.022;2022-12-07T09:49:14;6.28;;;2.03;;
12141;SDS011;6134;59.284;18.022;2022-12-07T09:51:44;4.32;;;1.77;;
12141;SDS011;6134;59.284;18.022;2022-12-07T09:54:14;7.57;;;2.70;;
12141;SDS011;6134;59.284;18.022;2022-12-07T09:56:44;9.27;;;2.63;;
12141;SDS011;6134;59.284;18.022;2022-12-07T09:59:15;12.27;;;4.03;;
12141;SDS011;6134;59.284;18.022;2022-12-07T10:01:45;6.60;;;2.65;;
12141;SDS011;6134;59.284;18.022;2022-12-07T10:04:15;10.30;;;3.10;;
12141;SDS011;6134;59.284;18.022;2022-12-07T10:06:46;11.68;;;3.58;;
12141;SDS011;6134;59.284;18.022;2022-12-07T10:09:18;9.05;;;2.95;;
12141;SDS011;6134;59.284;18.022;2022-12-07T10:12:13;4.13;;;1.70;;
12141;SDS011;6134;59.284;18.022;2022-12-07T10:14:52;6.65;;;2.60;;
12141;SDS011;6134;59.284;18.022;2022-12-07T10:17:35;6.75;;;2.88;;
12141;SDS011;6134;59.284;18.022;2022-12-07T10:20:21;6.90;;;2.83;;
12141;SDS011;6134;59.284;18.022;2022-12-07T10:23:00;7.82;;;2.20;;
12141;SDS011;6134;59.284;18.022;2022-12-07T10:25:30;4.13;;;1.13;;
12141;SDS011;6134;59.284;18.022;2022-12-07T10:28:02;6.03;;;1.38;;
12141;SDS011;6134;59.284;18.022;2022-12-07T10:30:31;3.25;;;1.60;;
12141;SDS011;6134;59.284;18.022;2022-12-07T10:33:01;2.85;;;1.33;;
12141;SDS011;6134;59.284;18.022;2022-12-07T10:35:29;4.63;;;1.30;;
12141;SDS011;6134;59.284;18.022;2022-12-07T10:37:59;4.20;;;1.60;;
12141;SDS011;6134;59.284;18.022;2022-12-07T10:40:31;2.85;;;1.40;;
12141;SDS011;6134;59.284;18.022;2022-12-07T10:43:03;2.30;;;1.40;;
12141;SDS011;6134;59.284;18.022;2022-12-07T10:45:32;3.33;;;1.60;;
12141;SDS011;6134;59.284;18.022;2022-12-07T10:48:18;3.53;;;1.55;;
12141;SDS011;6134;59.284;18.022;2022-12-07T10:50:52;4.70;;;1.60;;
12141;SDS011;6134;59.284;18.022;2022-12-07T10:53:29;6.90;;;2.40;;
12141;SDS011;6134;59.284;18.022;2022-12-07T10:56:06;2.67;;;1.60;;
12141;SDS011;6134;59.284;18.022;2022-12-07T10:58:43;3.40;;;1.30;;
12141;SDS011;6134;59.284;18.022;2022-12-07T11:01:18;4.50;;;1.70;;
12141;SDS011;6134;59.284;18.022;2022-12-07T11:03:54;6.05;;;1.63;;
12141;SDS011;6134;59.284;18.022;2022-12-07T11:06:29;2.45;;;1.30;;
12141;SDS011;6134;59.284;18.022;2022-12-07T11:09:02;2.38;;;1.40;;
12141;SDS011;6134;59.284;18.022;2022-12-07T11:11:33;2.45;;;1.50;;
12141;SDS011;6134;59.284;18.022;2022-12-07T11:14:12;1.92;;;1.02;;
12141;SDS011;6134;59.284;18.022;2022-12-07T11:16:47;2.85;;;1.73;;
12141;SDS011;6134;59.284;18.022;2022-12-07T11:22:03;5.80;;;1.50;;
12141;SDS011;6134;59.284;18.022;2022-12-07T11:24:35;3.70;;;1.52;;
12141;SDS011;6134;59.284;18.022;2022-12-07T11:27:13;2.28;;;1.67;;
12141;SDS011;6134;59.284;18.022;2022-12-07T11:29:46;4.97;;;1.77;;
12141;SDS011;6134;59.284;18.022;2022-12-07T11:32:18;6.00;;;1.75;;
12141;SDS011;6134;59.284;18.022;2022-12-07T11:34:51;6.68;;;1.88;;
12141;SDS011;6134;59.284;18.022;2022-12-07T11:37:21;9.60;;;2.00;;
12141;SDS011;6134;59.284;18.022;2022-12-07T11:39:52;2.20;;;1.50;;
12141;SDS011;6134;59.284;18.022;2022-12-07T11:42:24;8.52;;;2.20;;
12141;SDS011;6134;59.284;18.022;2022-12-07T11:44:55;6.38;;;1.52;;
12141;SDS011;6134;59.284;18.022;2022-12-07T11:47:27;4.47;;;1.77;;
12141;SDS011;6134;59.284;18.022;2022-12-07T11:49:58;4.80;;;1.75;;
12141;SDS011;6134;59.284;18.022;2022-12-07T11:52:32;4.60;;;1.67;;
12141;SDS011;6134;59.284;18.022;2022-12-07T11:55:14;2.67;;;1.20;;
12141;SDS011;6134;59.284;18.022;2022-12-07T11:57:44;6.38;;;1.92;;
12141;SDS011;6134;59.284;18.022;2022-12-07T12:00:16;2.97;;;1.42;;
12141;SDS011;6134;59.284;18.022;2022-12-07T12:02:46;3.17;;;1.55;;
12141;SDS011;6134;59.284;18.022;2022-12-07T12:05:17;5.60;;;1.20;;
12141;SDS011;6134;59.284;18.022;2022-12-07T12:07:48;4.13;;;1.60;;
12141;SDS011;6134;59.284;18.022;2022-12-07T12:10:42;3.08;;;1.48;;
12141;SDS011;6134;59.284;18.022;2022-12-07T12:13:21;4.80;;;1.50;;
12141;SDS011;6134;59.284;18.022;2022-12-07T12:16:20;3.15;;;1.33;;
12141;SDS011;6134;59.284;18.022;2022-12-07T12:18:54;6.22;;;1.40;;
12141;SDS011;6134;59.284;18.022;2022-12-07T12:21:26;2.47;;;1.48;;
12141;SDS011;6134;59.284;18.022;2022-12-07T12:23:57;6.03;;;1.60;;
12141;SDS011;6134;59.284;18.022;2022-12-07T12:26:27;2.55;;;1.40;;
12141;SDS011;6134;59.284;18.022;2022-12-07T12:28:57;4.65;;;1.50;;
12141;SDS011;6134;59.284;18.022;2022-12-07T12:31:35;2.92;;;1.75;;
12141;SDS011;6134;59.284;18.022;2022-12-07T12:36:53;3.40;;;1.80;;
12141;SDS011;6134;59.284;18.022;2022-12-07T12:39:22;4.82;;;2.00;;
12141;SDS011;6134;59.284;18.022;2022-12-07T12:44:39;4.85;;;1.85;;
12141;SDS011;6134;59.284;18.022;2022-12-07T12:50:15;2.22;;;1.58;;
12141;SDS011;6134;59.284;18.022;2022-12-07T12:52:46;3.20;;;1.38;;
12141;SDS011;6134;59.284;18.022;2022-12-07T12:55:18;4.97;;;1.48;;
12141;SDS011;6134;59.284;18.022;2022-12-07T12:58:17;3.53;;;1.30;;
12141;SDS011;6134;59.284;18.022;2022-12-07T13:00:47;6.50;;;1.30;;
12141;SDS011;6134;59.284;18.022;2022-12-07T13:03:21;2.13;;;1.52;;
12141;SDS011;6134;59.284;18.022;2022-12-07T13:06:04;8.30;;;1.55;;
12141;SDS011;6134;59.284;18.022;2022-12-07T13:08:45;2.05;;;1.35;;
12141;SDS011;6134;59.284;18.022;2022-12-07T13:11:17;3.88;;;1.33;;
12141;SDS011;6134;59.284;18.022;2022-12-07T13:13:46;2.47;;;1.67;;
12141;SDS011;6134;59.284;18.022;2022-12-07T13:16:39;2.45;;;1.27;;
12141;SDS011;6134;59.284;18.022;2022-12-07T13:24:58;2.60;;;1.45;;
12141;SDS011;6134;59.284;18.022;2022-12-07T13:27:31;5.00;;;1.60;;
12141;SDS011;6134;59.284;18.022;2022-12-07T13:30:00;9.55;;;2.05;;
12141;SDS011;6134;59.284;18.022;2022-12-07T13:32:29;3.08;;;1.50;;
12141;SDS011;6134;59.284;18.022;2022-12-07T13:34:58;3.25;;;1.30;;
12141;SDS011;6134;59.284;18.022;2022-12-07T13:37:29;2.05;;;1.25;;
12141;SDS011;6134;59.284;18.022;2022-12-07T13:40:12;5.63;;;1.35;;
12141;SDS011;6134;59.284;18.022;2022-12-07T13:42:44;4.68;;;1.88;;
12141;SDS011;6134;59.284;18.022;2022-12-07T13:45:20;6.50;;;1.50;;
12141;SDS011;6134;59.284;18.022;2022-12-07T13:48:10;4.13;;;1.23;;
12141;SDS011;6134;59.284;18.022;2022-12-07T13:50:42;3.33;;;1.48;;
12141;SDS011;6134;59.284;18.022;2022-12-07T13:53:12;5.05;;;1.45;;
12141;SDS011;6134;59.284;18.022;2022-12-07T13:55:46;3.58;;;1.85;;
12141;SDS011;6134;59.284;18.022;2022-12-07T13:58:20;4.68;;;1.60;;
12141;SDS011;6134;59.284;18.022;2022-12-07T14:00:49;5.50;;;1.90;;
12141;SDS011;6134;59.284;18.022;2022-12-07T14:03:28;9.13;;;1.98;;
12141;SDS011;6134;59.284;18.022;2022-12-07T14:06:05;7.53;;;1.92;;
12141;SDS011;6134;59.284;18.022;2022-12-07T14:08:34;4.97;;;2.08;;
12141;SDS011;6134;59.284;18.022;2022-12-07T14:11:04;6.50;;;2.17;;
12141;SDS011;6134;59.284;18.022;2022-12-07T14:13:34;3.42;;;2.22;;
12141;SDS011;6134;59.284;18.022;2022-12-07T14:16:15;5.78;;;2.08;;
12141;SDS011;6134;59.284;18.022;2022-12-07T14:18:46;7.03;;;2.25;;
12141;SDS011;6134;59.284;18.022;2022-12-07T14:21:15;3.83;;;1.77;;
12141;SDS011;6134;59.284;18.022;2022-12-07T14:23:45;4.15;;;1.65;;
12141;SDS011;6134;59.284;18.022;2022-12-07T14:26:15;3.83;;;1.65;;
12141;SDS011;6134;59.284;18.022;2022-12-07T14:28:46;4.35;;;1.42;;
12141;SDS011;6134;59.284;18.022;2022-12-07T14:31:16;10.85;;;1.58;;
12141;SDS011;6134;59.284;18.022;2022-12-07T14:33:58;4.60;;;1.20;;
12141;SDS011;6134;59.284;18.022;2022-12-07T14:36:27;2.83;;;1.50;;
12141;SDS011;6134;59.284;18.022;2022-12-07T14:38:55;6.68;;;1.90;;
12141;SDS011;6134;59.284;18.022;2022-12-07T14:41:27;1.60;;;1.20;;
12141;SDS011;6134;59.284;18.022;2022-12-07T14:44:14;2.47;;;1.42;;
12141;SDS011;6134;59.284;18.022;2022-12-07T14:46:55;2.30;;;1.40;;
12141;SDS011;6134;59.284;18.022;2022-12-07T14:49:43;3.33;;;1.42;;
12141;SDS011;6134;59.284;18.022;2022-12-07T14:52:13;5.25;;;1.83;;
12141;SDS011;6134;59.284;18.022;2022-12-07T14:55:03;5.55;;;1.38;;
12141;SDS011;6134;59.284;18.022;2022-12-07T14:57:33;1.98;;;1.00;;
12141;SDS011;6134;59.284;18.022;2022-12-07T15:00:02;3.03;;;1.30;;
12141;SDS011;6134;59.284;18.022;2022-12-07T15:02:31;5.18;;;1.20;;
12141;SDS011;6134;59.284;18.022;2022-12-07T15:05:00;3.15;;;1.08;;
12141;SDS011;6134;59.284;18.022;2022-12-07T15:07:29;3.45;;;1.60;;
12141;SDS011;6134;59.284;18.022;2022-12-07T15:09:58;4.28;;;1.30;;
12141;SDS011;6134;59.284;18.022;2022-12-07T15:12:26;4.53;;;1.40;;
12141;SDS011;6134;59.284;18.022;2022-12-07T15:14:56;2.03;;;1.30;;
12141;SDS011;6134;59.284;18.022;2022-12-07T15:17:26;3.85;;;1.02;;
12141;SDS011;6134;59.284;18.022;2022-12-07T15:19:57;2.67;;;1.40;;
12141;SDS011;6134;59.284;18.022;2022-12-07T15:22:26;4.28;;;1.65;;
12141;SDS011;6134;59.284;18.022;2022-12-07T15:25:03;9.20;;;2.47;;
12141;SDS011;6134;59.284;18.022;2022-12-07T15:27:32;9.07;;;2.95;;
12141;SDS011;6134;59.284;18.022;2022-12-07T15:30:03;9.35;;;2.90;;